createdAt,value
2024-02-20T00:00:24.675Z,7.42
2024-02-20T00:03:27.277Z,7.39
2024-02-20T00:06:30.823Z,7.35
2024-02-20T00:09:33.204Z,7.39
2024-02-20T00:12:38.545Z,7.33
2024-02-20T00:15:41.877Z,7.34
2024-02-20T00:18:44.063Z,7.34
2024-02-20T00:21:46.886Z,7.27
2024-02-20T00:24:49.330Z,7.22
2024-02-20T00:27:51.742Z,7.21
2024-02-20T00:30:53.849Z,7.22
2024-02-20T00:33:56.304Z,7.18
2024-02-20T00:36:58.448Z,7.21
2024-02-20T00:40:00.874Z,7.22
2024-02-20T00:43:03.901Z,7.25
2024-02-20T00:46:06.346Z,7.23
2024-02-20T00:49:08.611Z,7.21
2024-02-20T00:52:11.887Z,7.20
2024-02-20T00:55:14.631Z,7.21
2024-02-20T00:58:17.204Z,7.20
2024-02-20T01:01:19.549Z,7.26
2024-02-20T01:04:22.028Z,7.22
2024-02-20T01:07:25.668Z,7.24
2024-02-20T01:10:28.205Z,7.25
2024-02-20T01:13:31.714Z,7.23
2024-02-20T01:16:34.218Z,7.21
2024-02-20T01:19:36.406Z,7.24
2024-02-20T01:22:40.452Z,7.25
2024-02-20T01:25:42.801Z,7.26
2024-02-20T01:28:45.219Z,7.29
2024-02-20T01:31:48.497Z,7.32
2024-02-20T01:34:51.047Z,7.29
2024-02-20T01:37:54.010Z,7.30
2024-02-20T01:40:56.408Z,7.31
2024-02-20T01:43:59.620Z,7.32
2024-02-20T01:47:03.011Z,7.33
2024-02-20T01:50:06.879Z,7.37
2024-02-20T01:53:09.759Z,7.46
2024-02-20T01:56:14.403Z,7.52
2024-02-20T01:59:17.539Z,7.53
2024-02-20T02:02:21.288Z,7.54
2024-02-20T02:05:23.868Z,7.57
2024-02-20T02:08:26.228Z,7.53
2024-02-20T02:11:28.916Z,7.50
2024-02-20T02:14:31.122Z,7.51
2024-02-20T02:17:33.591Z,7.58
2024-02-20T02:20:35.819Z,7.56
2024-02-20T02:23:38.173Z,7.57
2024-02-20T02:26:40.320Z,7.57
2024-02-20T02:29:42.743Z,7.61
2024-02-20T02:32:44.920Z,7.63
2024-02-20T02:35:47.483Z,7.56
2024-02-20T02:38:49.544Z,7.59
2024-02-20T02:41:52.183Z,7.56
2024-02-20T02:44:54.234Z,7.49
2024-02-20T02:47:56.642Z,7.45
2024-02-20T02:50:58.744Z,7.45
2024-02-20T02:54:01.796Z,7.42
2024-02-20T02:57:04.003Z,7.39
2024-02-20T03:00:10.284Z,7.40
2024-02-20T03:03:12.391Z,7.40
2024-02-20T03:06:15.261Z,7.36
2024-02-20T03:09:19.604Z,7.26
2024-02-20T03:12:21.935Z,7.25
2024-02-20T03:15:24.210Z,7.22
2024-02-20T03:18:27.268Z,7.21
2024-02-20T03:21:29.354Z,7.18
2024-02-20T03:24:31.698Z,7.12
2024-02-20T03:27:33.776Z,7.13
2024-02-20T03:30:36.151Z,7.04
2024-02-20T03:33:38.670Z,7.02
2024-02-20T03:36:41.227Z,6.95
2024-02-20T03:39:43.266Z,6.94
2024-02-20T03:42:46.165Z,6.92
2024-02-20T03:45:48.307Z,6.91
2024-02-20T03:48:50.873Z,6.86
2024-02-20T03:51:53.130Z,6.85
2024-02-20T03:54:55.560Z,6.80
2024-02-20T03:57:57.744Z,6.79
2024-02-20T04:01:00.467Z,6.77
2024-02-20T04:04:04.091Z,6.72
2024-02-20T04:07:06.338Z,6.72
2024-02-20T04:10:09.396Z,6.68
2024-02-20T04:13:11.690Z,6.63
2024-02-20T04:16:14.248Z,6.63
2024-02-20T04:19:16.421Z,6.60
2024-02-20T04:22:18.995Z,6.58
2024-02-20T04:25:21.968Z,6.57
2024-02-20T04:28:24.503Z,6.54
2024-02-20T04:31:27.095Z,6.56
2024-02-20T04:34:29.635Z,6.52
2024-02-20T04:37:31.964Z,6.40
2024-02-20T04:40:34.480Z,6.56
2024-02-20T04:43:38.360Z,6.54
2024-02-20T04:46:40.967Z,6.55
2024-02-20T04:49:44.116Z,6.56
2024-02-20T04:52:46.588Z,6.56
2024-02-20T04:55:48.800Z,6.56
2024-02-20T04:58:51.235Z,6.54
2024-02-20T05:01:53.750Z,6.54
2024-02-20T05:04:57.284Z,6.51
2024-02-20T05:07:59.753Z,6.37
2024-02-20T05:11:02.422Z,6.49
2024-02-20T05:14:04.744Z,6.48
2024-02-20T05:17:07.125Z,6.47
2024-02-20T05:20:10.894Z,6.45
2024-02-20T05:23:13.396Z,6.40
2024-02-20T05:26:15.504Z,6.40
2024-02-20T05:29:17.835Z,6.39
2024-02-20T05:32:21.190Z,6.35
2024-02-20T05:35:23.772Z,6.33
2024-02-20T05:38:25.909Z,6.33
2024-02-20T05:41:29.840Z,6.33
2024-02-20T05:44:31.918Z,6.34
2024-02-20T05:47:34.971Z,6.31
2024-02-20T05:50:37.240Z,6.32
2024-02-20T05:53:39.851Z,6.33
2024-02-20T05:56:44.235Z,6.32
2024-02-20T05:59:46.663Z,6.36
2024-02-20T06:02:48.919Z,6.38
2024-02-20T06:05:51.421Z,6.40
2024-02-20T06:08:53.614Z,6.41
2024-02-20T06:11:56.058Z,6.44
2024-02-20T06:14:58.166Z,6.54
2024-02-20T06:18:00.825Z,6.60
2024-02-20T06:21:03.803Z,6.64
2024-02-20T06:24:06.238Z,6.70
2024-02-20T06:27:09.232Z,6.73
2024-02-20T06:30:13.750Z,6.77
2024-02-20T06:33:16.183Z,6.82
2024-02-20T06:36:18.658Z,6.87
2024-02-20T06:39:20.795Z,6.88
2024-02-20T06:42:23.530Z,6.92
2024-02-20T06:45:25.675Z,6.98
2024-02-20T06:48:30.757Z,7.02
2024-02-20T06:51:33.482Z,7.07
2024-02-20T06:54:35.892Z,7.12
2024-02-20T06:57:40.929Z,7.21
2024-02-20T07:00:43.498Z,7.35
2024-02-20T07:03:46.940Z,7.44
2024-02-20T07:06:49.403Z,7.56
2024-02-20T07:09:51.581Z,7.64
2024-02-20T07:12:56.695Z,7.78
2024-02-20T07:15:58.937Z,7.91
2024-02-20T07:19:01.568Z,8.00
2024-02-20T07:22:04.460Z,8.10
2024-02-20T07:25:07.085Z,8.23
2024-02-20T07:28:12.128Z,8.40
2024-02-20T07:31:21.385Z,8.59
2024-02-20T07:34:23.689Z,8.74
2024-02-20T07:37:26.697Z,9.00
2024-02-20T07:40:28.906Z,9.16
2024-02-20T07:43:33.154Z,9.38
2024-02-20T07:46:36.158Z,9.62
2024-02-20T07:49:38.792Z,9.79
2024-02-20T07:52:42.695Z,9.79
2024-02-20T07:55:45.538Z,9.93
2024-02-20T07:58:48.210Z,10.26
2024-02-20T08:01:51.279Z,10.73
2024-02-20T08:04:53.953Z,11.39
2024-02-20T08:07:56.199Z,12.31
2024-02-20T08:10:58.735Z,13.47
2024-02-20T08:14:01.021Z,13.81
2024-02-20T08:17:03.419Z,14.55
2024-02-20T08:20:05.805Z,15.36
2024-02-20T08:23:08.323Z,16.14
2024-02-20T08:26:10.804Z,17.47
2024-02-20T08:29:13.744Z,18.16
2024-02-20T08:32:16.107Z,18.26
2024-02-20T08:35:18.911Z,19.31
2024-02-20T08:38:21.400Z,19.43
2024-02-20T08:41:23.866Z,19.78
2024-02-20T08:44:26.081Z,20.03
2024-02-20T08:47:28.800Z,19.64
2024-02-20T08:50:31.303Z,19.90
2024-02-20T08:53:33.729Z,19.33
2024-02-20T08:56:36.298Z,19.11
2024-02-20T08:59:38.692Z,18.49
2024-02-20T09:02:41.303Z,17.98
2024-02-20T09:05:43.816Z,18.00
2024-02-20T09:08:46.253Z,17.74
2024-02-20T09:11:48.775Z,16.99
2024-02-20T09:14:51.123Z,16.25
2024-02-20T09:17:53.714Z,16.01
2024-02-20T09:20:56.870Z,15.89
2024-02-20T09:23:59.433Z,15.89
2024-02-20T09:27:02.863Z,15.75
2024-02-20T09:30:08.297Z,16.12
2024-02-20T09:33:10.574Z,15.89
2024-02-20T09:36:13.004Z,15.52
2024-02-20T09:39:15.075Z,15.46
2024-02-20T09:42:28.955Z,14.98
2024-02-20T09:45:31.897Z,14.92
2024-02-20T09:48:35.265Z,14.54
2024-02-20T09:51:38.825Z,14.58
2024-02-20T09:54:45.592Z,14.46
2024-02-20T09:57:50.821Z,14.42
2024-02-20T10:00:54.624Z,14.31
2024-02-20T10:03:58.663Z,14.21
2024-02-20T10:07:06.819Z,14.17
2024-02-20T10:10:10.725Z,14.37
2024-02-20T10:13:13.764Z,15.17
2024-02-20T10:16:17.603Z,15.67
2024-02-20T10:19:21.465Z,15.99
2024-02-20T10:22:25.232Z,16.07
2024-02-20T10:25:27.770Z,16.25
2024-02-20T10:28:31.749Z,16.77
2024-02-20T10:31:34.475Z,17.52
2024-02-20T10:34:37.060Z,18.09
2024-02-20T10:37:40.068Z,18.50
2024-02-20T10:40:42.833Z,19.02
2024-02-20T10:43:46.854Z,19.29
2024-02-20T10:46:49.371Z,19.52
2024-02-20T10:49:52.706Z,19.67
2024-02-20T10:52:56.015Z,20.11
2024-02-20T10:55:59.605Z,20.14
2024-02-20T10:59:04.802Z,20.12
2024-02-20T11:02:07.231Z,20.47
2024-02-20T11:05:17.805Z,20.45
2024-02-20T11:08:25.775Z,20.60
2024-02-20T11:11:31.188Z,20.74
2024-02-20T11:14:33.352Z,20.02
2024-02-20T11:17:36.291Z,20.01
2024-02-20T11:20:39.309Z,19.79
2024-02-20T11:23:41.699Z,19.76
2024-02-20T11:26:46.101Z,19.23
2024-02-20T11:29:48.571Z,19.58
2024-02-20T11:32:55.303Z,19.80
2024-02-20T11:35:58.176Z,19.67
2024-02-20T11:39:07.069Z,19.65
2024-02-20T11:42:09.988Z,19.68
2024-02-20T11:45:22.412Z,19.91
2024-02-20T11:48:25.104Z,20.05
2024-02-20T11:51:27.816Z,20.19
2024-02-20T11:54:30.196Z,20.50
2024-02-20T11:57:32.477Z,20.74
2024-02-20T12:00:38.950Z,20.64
2024-02-20T12:03:44.347Z,20.67
2024-02-20T12:06:46.603Z,20.72
2024-02-20T12:09:55.459Z,20.57
2024-02-20T12:12:57.634Z,20.62
2024-02-20T12:16:00.135Z,20.62
2024-02-20T12:19:10.474Z,20.75
2024-02-20T12:22:22.777Z,20.88
2024-02-20T12:25:25.174Z,21.07
2024-02-20T12:28:27.663Z,20.95
2024-02-20T12:31:31.976Z,21.04
2024-02-20T12:34:41.434Z,20.81
2024-02-20T12:37:47.667Z,20.87
2024-02-20T12:40:50.162Z,20.95
2024-02-20T12:43:52.737Z,21.10
2024-02-20T12:46:55.259Z,20.87
2024-02-20T12:49:57.955Z,20.94
2024-02-20T12:53:00.497Z,20.86
2024-02-20T12:56:03.463Z,21.10
2024-02-20T12:59:05.859Z,21.07
2024-02-20T13:02:08.544Z,20.70
2024-02-20T13:05:11.560Z,20.46
2024-02-20T13:08:14.104Z,20.30
2024-02-20T13:11:18.597Z,20.42
2024-02-20T13:14:21.787Z,20.47
2024-02-20T13:17:26.362Z,20.48
2024-02-20T13:20:32.373Z,20.78
2024-02-20T13:23:34.755Z,21.61
2024-02-20T13:26:37.648Z,21.94
2024-02-20T13:29:40.111Z,22.34
2024-02-20T13:32:42.420Z,22.87
2024-02-20T13:35:44.990Z,22.50
2024-02-20T13:38:48.309Z,22.80
2024-02-20T13:41:50.837Z,22.50
2024-02-20T13:44:52.959Z,21.82
2024-02-20T13:47:55.426Z,21.35
2024-02-20T13:50:58.358Z,20.83
2024-02-20T13:54:02.077Z,20.03
2024-02-20T13:57:04.218Z,19.68
2024-02-20T14:00:08.157Z,18.98
2024-02-20T14:03:18.372Z,18.53
2024-02-20T14:06:21.135Z,18.15
2024-02-20T14:09:24.966Z,17.79
2024-02-20T14:12:30.169Z,17.49
2024-02-20T14:15:32.715Z,17.19
2024-02-20T14:18:35.163Z,17.14
2024-02-20T14:21:37.299Z,16.76
2024-02-20T14:24:39.791Z,16.53
2024-02-20T14:27:41.941Z,16.47
2024-02-20T14:30:49.439Z,16.27
2024-02-20T14:33:56.162Z,16.14
2024-02-20T14:36:58.615Z,15.94
2024-02-20T14:40:00.700Z,15.72
2024-02-20T14:43:05.229Z,15.56
2024-02-20T14:46:07.429Z,15.33
2024-02-20T14:49:10.385Z,15.16
2024-02-20T14:52:12.565Z,15.11
2024-02-20T14:55:15.175Z,15.03
2024-02-20T14:58:17.360Z,14.87
2024-02-20T15:01:24.385Z,14.80
2024-02-20T15:04:28.511Z,14.68
2024-02-20T15:07:31.114Z,14.52
2024-02-20T15:10:34.022Z,14.44
2024-02-20T15:13:36.496Z,14.34
2024-02-20T15:16:38.715Z,14.25
2024-02-20T15:19:41.512Z,14.11
2024-02-20T15:22:43.780Z,14.03
2024-02-20T15:25:46.934Z,13.95
2024-02-20T15:28:49.230Z,13.86
2024-02-20T15:31:51.790Z,13.79
2024-02-20T15:34:54.904Z,13.70
2024-02-20T15:37:57.693Z,13.68
2024-02-20T15:41:00.889Z,13.56
2024-02-20T15:44:03.385Z,13.52
2024-02-20T15:47:06.754Z,13.40
2024-02-20T15:50:09.751Z,13.34
2024-02-20T15:53:14.381Z,13.21
2024-02-20T15:56:17.233Z,13.19
2024-02-20T15:59:19.629Z,13.11
2024-02-20T16:02:22.324Z,13.02
2024-02-20T16:05:25.179Z,12.99
2024-02-20T16:08:28.498Z,12.90
2024-02-20T16:11:31.052Z,12.80
2024-02-20T16:14:34.158Z,12.74
2024-02-20T16:17:39.933Z,12.70
2024-02-20T16:20:43.267Z,12.61
2024-02-20T16:23:45.702Z,12.62
2024-02-20T16:26:49.029Z,12.53
2024-02-20T16:29:56.873Z,12.46
2024-02-20T16:33:00.473Z,12.39
2024-02-20T16:36:03.046Z,12.39
2024-02-20T16:39:05.518Z,12.35
2024-02-20T16:42:07.902Z,12.21
2024-02-20T16:45:10.262Z,12.16
2024-02-20T16:48:13.338Z,12.15
2024-02-20T16:51:15.561Z,12.10
2024-02-20T16:54:18.025Z,12.07
2024-02-20T16:57:20.157Z,11.95
2024-02-20T17:00:23.498Z,11.91
2024-02-20T17:03:26.003Z,11.87
2024-02-20T17:06:28.871Z,11.83
2024-02-20T17:09:31.141Z,11.75
2024-02-20T17:12:33.508Z,11.72
2024-02-20T17:15:35.738Z,11.66
2024-02-20T17:18:38.241Z,11.62
2024-02-20T17:21:40.508Z,11.61
2024-02-20T17:24:43.002Z,11.59
2024-02-20T17:27:45.275Z,11.54
2024-02-20T17:30:50.597Z,11.51
2024-02-20T17:33:54.142Z,11.49
2024-02-20T17:36:57.256Z,11.43
2024-02-20T17:40:00.977Z,11.43
2024-02-20T17:43:03.502Z,11.41
2024-02-20T17:46:05.720Z,11.35
2024-02-20T17:49:08.142Z,11.30
2024-02-20T17:52:10.987Z,11.25
2024-02-20T17:55:13.545Z,11.23
2024-02-20T17:58:15.790Z,11.23
2024-02-20T18:01:21.629Z,11.20
2024-02-20T18:04:25.215Z,11.16
2024-02-20T18:07:27.924Z,11.12
2024-02-20T18:10:30.462Z,11.11
2024-02-20T18:13:33.024Z,11.09
2024-02-20T18:16:35.971Z,11.08
2024-02-20T18:19:38.154Z,11.05
2024-02-20T18:22:40.628Z,11.06
2024-02-20T18:25:42.879Z,10.98
2024-02-20T18:28:45.423Z,10.97
2024-02-20T18:31:48.457Z,10.97
2024-02-20T18:34:51.142Z,10.96
2024-02-20T18:37:53.410Z,10.92
2024-02-20T18:40:56.376Z,10.96
2024-02-20T18:43:59.602Z,10.98
2024-02-20T18:47:02.317Z,10.98
2024-02-20T18:50:05.885Z,11.01
2024-02-20T18:53:08.529Z,11.02
2024-02-20T18:56:10.832Z,11.04
2024-02-20T18:59:13.294Z,11.06
2024-02-20T19:02:26.998Z,11.10
2024-02-20T19:05:35.095Z,11.09
2024-02-20T19:08:45.063Z,11.08
2024-02-20T19:11:48.291Z,11.10
2024-02-20T19:14:50.947Z,11.14
2024-02-20T19:17:55.762Z,11.11
2024-02-20T19:20:58.164Z,11.13
2024-02-20T19:24:05.561Z,11.14
2024-02-20T19:27:08.842Z,11.12
2024-02-20T19:30:11.437Z,11.10
2024-02-20T19:33:14.225Z,11.13
2024-02-20T19:36:17.297Z,11.12
2024-02-20T19:39:19.648Z,11.12
2024-02-20T19:42:28.018Z,11.17
2024-02-20T19:45:30.737Z,11.12
2024-02-20T19:48:33.318Z,11.15
2024-02-20T19:51:37.465Z,11.14
2024-02-20T19:54:40.441Z,11.11
2024-02-20T19:57:42.634Z,11.02
2024-02-20T20:00:48.391Z,11.02
2024-02-20T20:03:53.191Z,11.01
2024-02-20T20:06:55.360Z,11.00
2024-02-20T20:09:57.911Z,10.97
2024-02-20T20:13:05.043Z,10.97
2024-02-20T20:16:07.769Z,10.98
2024-02-20T20:19:10.508Z,10.96
2024-02-20T20:22:13.214Z,10.97
2024-02-20T20:25:16.724Z,10.89
2024-02-20T20:28:20.863Z,10.90
2024-02-20T20:31:23.130Z,10.91
2024-02-20T20:34:26.412Z,10.89
2024-02-20T20:37:28.647Z,10.88
2024-02-20T20:40:31.237Z,10.78
2024-02-20T20:43:33.408Z,10.82
2024-02-20T20:46:36.332Z,10.74
2024-02-20T20:49:43.618Z,10.64
2024-02-20T20:52:46.248Z,10.63
2024-02-20T20:55:48.500Z,10.60
2024-02-20T20:58:51.087Z,10.57
2024-02-20T21:01:53.387Z,10.58
2024-02-20T21:04:55.991Z,10.56
2024-02-20T21:07:58.275Z,10.54
2024-02-20T21:11:01.338Z,10.53
2024-02-20T21:14:03.824Z,10.45
2024-02-20T21:17:06.572Z,10.45
2024-02-20T21:20:11.430Z,10.44
2024-02-20T21:23:17.611Z,10.43
2024-02-20T21:26:24.386Z,10.43
2024-02-20T21:29:26.821Z,10.44
2024-02-20T21:32:28.973Z,10.41
2024-02-20T21:35:31.770Z,10.41
2024-02-20T21:38:35.318Z,10.39
2024-02-20T21:41:39.779Z,10.40
2024-02-20T21:44:41.909Z,10.32
2024-02-20T21:47:44.484Z,10.33
2024-02-20T21:50:46.810Z,10.30
2024-02-20T21:53:50.483Z,10.30
2024-02-20T21:56:52.710Z,10.35
2024-02-20T21:59:57.169Z,10.30
2024-02-20T22:02:59.311Z,10.25
2024-02-20T22:06:02.114Z,10.18
2024-02-20T22:09:04.387Z,10.16
2024-02-20T22:12:06.944Z,10.12
2024-02-20T22:15:09.781Z,10.11
2024-02-20T22:18:12.325Z,10.07
2024-02-20T22:21:18.311Z,9.97
2024-02-20T22:24:21.173Z,9.93
2024-02-20T22:27:23.357Z,9.90
2024-02-20T22:30:25.750Z,9.88
2024-02-20T22:33:29.658Z,9.85
2024-02-20T22:36:32.163Z,9.86
2024-02-20T22:39:34.260Z,9.83
2024-02-20T22:42:36.805Z,9.82
2024-02-20T22:45:39.069Z,9.79
2024-02-20T22:48:41.664Z,9.77
2024-02-20T22:51:44.593Z,9.77
2024-02-20T22:54:49.518Z,9.75
2024-02-20T22:57:51.875Z,9.75
2024-02-20T23:00:54.718Z,9.75
2024-02-20T23:03:57.018Z,9.70
2024-02-20T23:06:59.509Z,9.71
2024-02-20T23:10:01.669Z,9.71
2024-02-20T23:13:04.344Z,9.73
2024-02-20T23:16:06.840Z,9.71
2024-02-20T23:19:09.318Z,9.73
2024-02-20T23:22:11.601Z,9.71
2024-02-20T23:25:14.643Z,9.71
2024-02-20T23:28:16.941Z,9.65
2024-02-20T23:31:19.351Z,9.65
2024-02-20T23:34:21.628Z,9.65
2024-02-20T23:37:24.112Z,9.64
2024-02-20T23:40:26.285Z,9.68
2024-02-20T23:43:28.832Z,9.65
2024-02-20T23:46:31.348Z,9.64
2024-02-20T23:49:33.811Z,9.60
2024-02-20T23:52:35.951Z,9.59
2024-02-20T23:55:38.358Z,9.58
2024-02-20T23:58:41.902Z,9.59
